createdAt,value
2019-04-21T00:00:13.240Z,102013.19
2019-04-21T00:02:44.093Z,102012.23
2019-04-21T00:05:43.687Z,102010.38
2019-04-21T00:08:09.630Z,102013.37
2019-04-21T00:10:38.281Z,102017.32
2019-04-21T00:12:56.179Z,102005.28
2019-04-21T00:15:24.400Z,102006.54
2019-04-21T00:17:51.835Z,102008.20
2019-04-21T00:20:26.631Z,102003.23
2019-04-21T00:23:05.886Z,102002.29
2019-04-21T00:25:37.049Z,102007.09
2019-04-21T00:28:17.029Z,102002.05
2019-04-21T00:30:39.874Z,101999.77
2019-04-21T00:32:59.996Z,101998.30
2019-04-21T00:35:25.940Z,101998.19
2019-04-21T00:38:19.074Z,101983.97
2019-04-21T00:40:52.801Z,101990.50
2019-04-21T00:43:10.277Z,101986.92
2019-04-21T00:45:38.550Z,101987.73
2019-04-21T00:48:20.676Z,101985.86
2019-04-21T00:51:03.350Z,101981.77
2019-04-21T00:53:30.076Z,101979.05
2019-04-21T00:55:59.746Z,101979.01
2019-04-21T00:58:33.329Z,101974.59
2019-04-21T01:00:57.989Z,101971.89
2019-04-21T01:03:35.491Z,101978.48
2019-04-21T01:05:58.933Z,101976.64
2019-04-21T01:08:31.184Z,101979.70
2019-04-21T01:10:53.208Z,101972.15
2019-04-21T01:13:39.518Z,101973.00
2019-04-21T01:16:10.185Z,101977.38
2019-04-21T01:18:32.664Z,101976.02
2019-04-21T01:20:42.895Z,101975.94
2019-04-21T01:23:12.702Z,101979.00
2019-04-21T01:25:55.816Z,101976.30
2019-04-21T01:28:29.247Z,101983.77
2019-04-21T01:31:05.705Z,101972.25
2019-04-21T01:33:39.779Z,101963.73
2019-04-21T01:36:05.029Z,101969.88
2019-04-21T01:38:42.794Z,101971.53
2019-04-21T01:41:18.025Z,101966.59
2019-04-21T01:43:38.396Z,101962.14
2019-04-21T01:46:06.709Z,101958.92
2019-04-21T01:48:36.064Z,101956.12
2019-04-21T01:51:05.358Z,101952.02
2019-04-21T01:54:01.317Z,101958.56
2019-04-21T01:56:53.946Z,101954.02
2019-04-21T01:59:14.131Z,101956.55
2019-04-21T02:01:52.501Z,101963.93
2019-04-21T02:04:29.436Z,101957.62
2019-04-21T02:07:00.024Z,101960.14
2019-04-21T02:09:38.260Z,101956.97
2019-04-21T02:12:08.784Z,101956.43
2019-04-21T02:14:48.141Z,101963.38
2019-04-21T02:17:14.787Z,101960.12
2019-04-21T02:19:35.921Z,101950.71
2019-04-21T02:22:04.602Z,101953.66
2019-04-21T02:24:51.633Z,101952.17
2019-04-21T02:27:14.867Z,101945.90
2019-04-21T02:29:48.742Z,101952.86
2019-04-21T02:37:40.159Z,101937.38
2019-04-21T02:42:32.926Z,101932.29
2019-04-21T02:47:37.226Z,101931.66
2019-04-21T02:52:37.413Z,101930.14
2019-04-21T02:55:02.746Z,101933.03
2019-04-21T02:57:39.705Z,101924.95
2019-04-21T03:00:06.457Z,101916.44
2019-04-21T03:02:55.051Z,101916.77
2019-04-21T03:05:47.044Z,101914.04
2019-04-21T03:08:26.187Z,101913.05
2019-04-21T03:13:24.502Z,101911.93
2019-04-21T03:16:06.890Z,101911.83
2019-04-21T03:18:24.267Z,101908.64
2019-04-21T03:20:54.884Z,101902.88
2019-04-21T03:23:27.579Z,101903.26
2019-04-21T03:26:03.338Z,101897.83
2019-04-21T03:28:27.852Z,101893.86
2019-04-21T03:31:25.219Z,101894.20
2019-04-21T03:38:28.926Z,101897.32
2019-04-21T03:40:57.352Z,101891.98
2019-04-21T03:43:31.597Z,101883.55
2019-04-21T03:48:36.136Z,101886.88
2019-04-21T03:51:01.523Z,101890.30
2019-04-21T04:04:15.995Z,101888.12
2019-04-21T04:06:55.618Z,101880.52
2019-04-21T04:09:52.384Z,101886.19
2019-04-21T04:12:01.110Z,101886.95
2019-04-21T04:14:44.167Z,101877.61
2019-04-21T04:17:11.822Z,101879.71
2019-04-21T04:19:41.961Z,101881.41
2019-04-21T04:22:17.206Z,101879.59
2019-04-21T04:24:49.905Z,101878.11
2019-04-21T04:27:20.896Z,101883.17
2019-04-21T04:29:39.767Z,101884.87
2019-04-21T04:32:18.745Z,101881.25
2019-04-21T04:37:30.262Z,101889.00
2019-04-21T04:40:00.540Z,101884.99
2019-04-21T04:42:40.781Z,101886.75
2019-04-21T04:47:24.383Z,101892.91
2019-04-21T04:50:17.814Z,101888.55
2019-04-21T04:55:03.785Z,101892.13
2019-04-21T05:00:14.314Z,101878.55
2019-04-21T05:15:10.060Z,101892.14
2019-04-21T05:17:43.582Z,101889.16
2019-04-21T05:20:11.541Z,101881.74
2019-04-21T05:22:35.725Z,101875.20
2019-04-21T05:24:58.008Z,101880.63
2019-04-21T05:27:47.274Z,101882.02
2019-04-21T05:30:40.489Z,101879.97
2019-04-21T05:33:36.474Z,101873.04
2019-04-21T05:36:12.975Z,101878.88
2019-04-21T05:39:07.630Z,101869.40
2019-04-21T05:41:29.086Z,101879.30
2019-04-21T05:44:13.269Z,101879.45
2019-04-21T05:46:44.496Z,101872.12
2019-04-21T05:49:20.807Z,101876.23
2019-04-21T05:51:59.802Z,101876.83
2019-04-21T05:57:05.255Z,101871.50
2019-04-21T05:59:40.406Z,101875.17
2019-04-21T06:02:13.941Z,101875.76
2019-04-21T06:04:56.599Z,101878.16
2019-04-21T06:07:19.010Z,101873.89
2019-04-21T06:09:48.957Z,101872.71
2019-04-21T06:12:10.816Z,101875.98
2019-04-21T06:14:45.278Z,101872.61
2019-04-21T06:17:19.400Z,101868.34
2019-04-21T06:19:50.307Z,101873.81
2019-04-21T06:22:14.858Z,101878.31
2019-04-21T06:25:15.164Z,101877.61
2019-04-21T06:27:22.878Z,101875.11
2019-04-21T06:29:50.139Z,101871.75
2019-04-21T06:32:37.516Z,101870.12
2019-04-21T06:35:07.213Z,101872.45
2019-04-21T06:37:45.700Z,101877.44
2019-04-21T06:40:24.013Z,101868.75
2019-04-21T06:42:32.514Z,101868.00
2019-04-21T06:45:20.429Z,101864.59
2019-04-21T06:47:46.795Z,101860.78
2019-04-21T06:50:02.057Z,101864.16
2019-04-21T06:52:51.955Z,101857.25
2019-04-21T06:55:12.222Z,101854.29
2019-04-21T06:57:41.101Z,101858.09
2019-04-21T07:00:10.411Z,101858.84
2019-04-21T07:05:07.925Z,101850.94
2019-04-21T07:07:43.654Z,101841.84
2019-04-21T07:10:10.745Z,101849.97
2019-04-21T07:12:39.272Z,101848.34
2019-04-21T07:15:09.992Z,101841.38
2019-04-21T07:17:38.874Z,101845.01
2019-04-21T07:20:15.503Z,101836.30
2019-04-21T07:22:48.066Z,101839.97
2019-04-21T07:25:14.147Z,101835.65
2019-04-21T07:27:49.278Z,101836.19
2019-04-21T07:30:19.301Z,101838.94
2019-04-21T07:35:33.399Z,101837.89
2019-04-21T07:37:49.378Z,101837.56
2019-04-21T07:40:15.031Z,101828.90
2019-04-21T07:42:42.869Z,101833.50
2019-04-21T07:45:19.499Z,101833.22
2019-04-21T07:47:55.161Z,101826.83
2019-04-21T07:50:52.083Z,101830.11
2019-04-21T07:53:36.515Z,101828.08
2019-04-21T07:55:38.093Z,101829.58
2019-04-21T07:58:26.196Z,101829.75
2019-04-21T08:08:29.607Z,101828.55
2019-04-21T08:10:56.791Z,101825.61
2019-04-21T08:13:48.797Z,101822.73
2019-04-21T08:16:04.700Z,101827.80
2019-04-21T08:18:39.416Z,101829.75
2019-04-21T08:21:07.238Z,101822.78
2019-04-21T08:23:38.393Z,101817.12
2019-04-21T08:28:40.634Z,101806.25
2019-04-21T08:31:09.841Z,101812.59
2019-04-21T08:38:45.984Z,101800.84
2019-04-21T08:41:12.453Z,101800.42
2019-04-21T08:46:17.217Z,101799.13
2019-04-21T08:48:46.575Z,101793.78
2019-04-21T08:53:47.642Z,101793.74
2019-04-21T08:56:30.415Z,101786.59
2019-04-21T08:59:28.889Z,101782.53
2019-04-21T09:01:58.692Z,101785.14
2019-04-21T09:04:42.838Z,101782.84
2019-04-21T09:07:12.834Z,101780.97
2019-04-21T09:09:32.083Z,101772.42
2019-04-21T09:12:01.536Z,101771.88
2019-04-21T09:14:31.034Z,101777.13
2019-04-21T09:16:56.791Z,101773.45
2019-04-21T09:19:44.518Z,101763.45
2019-04-21T09:22:03.606Z,101761.12
2019-04-21T09:24:33.316Z,101763.19
2019-04-21T09:27:07.133Z,101759.86
2019-04-21T09:29:26.477Z,101753.89
2019-04-21T09:31:48.507Z,101748.37
2019-04-21T09:34:27.132Z,101749.09
2019-04-21T09:36:54.442Z,101746.64
2019-04-21T09:39:24.155Z,101751.78
2019-04-21T09:41:54.429Z,101745.36
2019-04-21T09:44:27.296Z,101739.34
2019-04-21T09:46:56.622Z,101735.59
2019-04-21T09:49:27.464Z,101738.47
2019-04-21T09:51:55.269Z,101738.52
2019-04-21T09:54:29.471Z,101730.07
2019-04-21T09:57:02.880Z,101729.36
2019-04-21T09:59:31.820Z,101725.59
2019-04-21T10:02:06.667Z,101724.06
2019-04-21T10:04:28.892Z,101717.87
2019-04-21T10:06:58.776Z,101717.91
2019-04-21T10:09:29.012Z,101709.86
2019-04-21T10:11:58.124Z,101707.62
2019-04-21T10:14:27.188Z,101698.69
2019-04-21T10:17:15.110Z,101698.71
2019-04-21T10:19:44.328Z,101689.86
2019-04-21T10:22:14.768Z,101689.49
2019-04-21T10:24:44.601Z,101680.52
2019-04-21T10:27:14.755Z,101675.48
2019-04-21T10:29:45.332Z,101680.23
2019-04-21T10:32:15.414Z,101674.37
2019-04-21T10:34:45.260Z,101679.95
2019-04-21T10:37:14.403Z,101671.16
2019-04-21T10:39:43.483Z,101666.76
2019-04-21T10:42:13.199Z,101666.66
2019-04-21T10:44:43.142Z,101659.67
2019-04-21T10:47:12.865Z,101650.83
2019-04-21T10:49:44.598Z,101644.69
2019-04-21T10:52:37.306Z,101651.78
2019-04-21T10:55:23.097Z,101644.50
2019-04-21T10:57:39.958Z,101632.25
2019-04-21T11:00:12.072Z,101634.70
2019-04-21T11:02:46.523Z,101634.18
2019-04-21T11:05:16.770Z,101630.31
2019-04-21T11:08:01.194Z,101627.64
2019-04-21T11:10:22.334Z,101627.62
2019-04-21T11:12:52.656Z,101630.02
2019-04-21T11:15:23.221Z,101627.27
2019-04-21T11:17:52.524Z,101615.46
2019-04-21T11:20:22.800Z,101615.57
2019-04-21T11:22:53.531Z,101614.09
2019-04-21T11:25:24.137Z,101615.44
2019-04-21T11:27:53.378Z,101611.17
2019-04-21T11:30:23.357Z,101601.30
2019-04-21T11:32:53.109Z,101594.91
2019-04-21T11:35:23.433Z,101596.83
2019-04-21T11:37:59.430Z,101589.06
2019-04-21T11:40:25.338Z,101589.97
2019-04-21T11:42:55.637Z,101583.27
2019-04-21T11:45:32.989Z,101578.63
2019-04-21T11:48:19.582Z,101576.92
2019-04-21T11:53:18.948Z,101564.61
2019-04-21T11:55:50.142Z,101569.02
2019-04-21T11:58:19.216Z,101560.05
2019-04-21T12:00:53.749Z,101559.79
2019-04-21T12:03:23.956Z,101560.56
2019-04-21T12:05:53.245Z,101557.53
2019-04-21T12:08:30.027Z,101561.80
2019-04-21T12:10:53.505Z,101555.12
2019-04-21T12:13:22.773Z,101546.73
2019-04-21T12:15:52.817Z,101553.45
2019-04-21T12:18:25.050Z,101545.22
2019-04-21T12:20:53.711Z,101535.14
2019-04-21T12:23:22.960Z,101531.81
2019-04-21T12:25:52.081Z,101532.25
2019-04-21T12:28:21.871Z,101527.34
2019-04-21T12:30:53.777Z,101529.33
2019-04-21T12:33:45.832Z,101532.05
2019-04-21T12:36:15.848Z,101524.33
2019-04-21T12:38:52.162Z,101512.50
2019-04-21T12:41:15.959Z,101509.08
2019-04-21T12:43:45.028Z,101509.08
2019-04-21T12:46:14.139Z,101498.55
2019-04-21T12:48:44.243Z,101497.93
2019-04-21T12:51:13.649Z,101496.12
2019-04-21T12:53:43.451Z,101484.95
2019-04-21T12:56:13.703Z,101481.12
2019-04-21T12:58:43.543Z,101484.64
2019-04-21T13:01:12.667Z,101481.46
2019-04-21T13:03:41.952Z,101476.97
2019-04-21T13:06:11.768Z,101474.30
2019-04-21T13:08:49.304Z,101469.34
2019-04-21T13:11:13.118Z,101461.00
2019-04-21T13:13:42.226Z,101456.42
2019-04-21T13:16:11.662Z,101446.55
2019-04-21T13:18:41.655Z,101450.92
2019-04-21T13:21:12.063Z,101454.63
2019-04-21T13:23:41.267Z,101443.59
2019-04-21T13:26:11.414Z,101438.38
2019-04-21T13:28:40.621Z,101435.58
2019-04-21T13:31:09.703Z,101428.19
2019-04-21T13:33:39.849Z,101426.64
2019-04-21T13:36:09.725Z,101427.89
2019-04-21T13:39:24.946Z,101425.18
2019-04-21T13:41:41.513Z,101422.95
2019-04-21T13:44:17.870Z,101418.64
2019-04-21T13:46:47.345Z,101411.23
2019-04-21T13:49:17.241Z,101409.82
2019-04-21T13:51:47.871Z,101402.95
2019-04-21T13:54:18.052Z,101406.44
2019-04-21T13:56:47.378Z,101403.92
2019-04-21T13:59:16.435Z,101401.88
2019-04-21T14:01:45.756Z,101396.63
2019-04-21T14:04:15.918Z,101397.27
2019-04-21T14:06:45.116Z,101398.38
2019-04-21T14:09:15.598Z,101388.73
2019-04-21T14:11:45.285Z,101384.24
2019-04-21T14:14:14.515Z,101389.43
2019-04-21T14:16:44.359Z,101380.80
2019-04-21T14:19:15.335Z,101383.61
2019-04-21T14:21:47.698Z,101368.13
2019-04-21T14:24:15.332Z,101367.25
2019-04-21T14:26:44.623Z,101363.45
2019-04-21T14:29:13.664Z,101354.77
2019-04-21T14:31:44.251Z,101360.44
2019-04-21T14:34:14.330Z,101362.67
2019-04-21T14:36:44.522Z,101358.59
2019-04-21T14:39:14.621Z,101353.04
2019-04-21T14:41:44.279Z,101350.91
2019-04-21T14:44:13.412Z,101349.63
2019-04-21T14:46:49.092Z,101345.14
2019-04-21T14:49:37.200Z,101339.91
2019-04-21T14:52:25.330Z,101339.44
2019-04-21T14:55:02.830Z,101333.28
2019-04-21T14:57:33.432Z,101335.82
2019-04-21T15:00:03.030Z,101333.87
2019-04-21T15:02:32.239Z,101325.66
2019-04-21T15:05:02.131Z,101321.16
2019-04-21T15:07:31.280Z,101325.65
2019-04-21T15:10:09.778Z,101320.41
2019-04-21T15:12:31.818Z,101320.41
2019-04-21T15:15:02.242Z,101320.35
2019-04-21T15:17:31.694Z,101320.16
2019-04-21T15:20:06.591Z,101314.30
2019-04-21T15:22:32.306Z,101306.73
2019-04-21T15:25:02.831Z,101302.06
2019-04-21T15:27:32.786Z,101303.59
2019-04-21T15:30:02.962Z,101297.53
2019-04-21T15:32:32.735Z,101297.77
2019-04-21T15:35:02.314Z,101295.70
2019-04-21T15:37:33.775Z,101291.10
2019-04-21T15:40:14.935Z,101296.19
2019-04-21T15:42:34.668Z,101290.80
2019-04-21T15:45:03.839Z,101285.89
2019-04-21T15:47:33.756Z,101286.72
2019-04-21T15:50:10.058Z,101275.77
2019-04-21T15:52:34.274Z,101277.78
2019-04-21T15:55:16.907Z,101274.41
2019-04-21T15:58:12.301Z,101273.56
2019-04-21T16:00:56.434Z,101277.00
2019-04-21T16:03:31.837Z,101272.34
2019-04-21T16:06:01.383Z,101270.10
2019-04-21T16:08:31.203Z,101269.70
2019-04-21T16:11:03.970Z,101260.13
2019-04-21T16:13:31.953Z,101261.70
2019-04-21T16:16:02.220Z,101261.42
2019-04-21T16:18:32.184Z,101260.06
2019-04-21T16:21:02.057Z,101248.22
2019-04-21T16:23:32.732Z,101246.92
2019-04-21T16:26:02.614Z,101243.84
2019-04-21T16:28:33.194Z,101242.53
2019-04-21T16:31:02.570Z,101243.92
2019-04-21T16:33:31.688Z,101240.11
2019-04-21T16:36:02.071Z,101236.00
2019-04-21T16:38:31.498Z,101236.42
2019-04-21T16:41:04.731Z,101228.25
2019-04-21T16:43:31.384Z,101230.42
2019-04-21T16:46:01.286Z,101224.48
2019-04-21T16:48:30.915Z,101223.63
2019-04-21T16:51:01.543Z,101219.89
2019-04-21T16:53:56.004Z,101215.71
2019-04-21T16:56:39.617Z,101219.58
2019-04-21T16:59:20.806Z,101213.08
2019-04-21T17:01:49.935Z,101202.13
2019-04-21T17:04:20.369Z,101206.15
2019-04-21T17:06:49.475Z,101208.17
2019-04-21T17:09:18.880Z,101204.43
2019-04-21T17:11:49.285Z,101203.75
2019-04-21T17:14:39.301Z,101204.91
2019-04-21T17:17:16.135Z,101203.80
2019-04-21T17:19:27.809Z,101200.41
2019-04-21T17:21:52.111Z,101200.14
2019-04-21T17:24:22.194Z,101204.33
2019-04-21T17:26:51.478Z,101195.05
2019-04-21T17:29:20.901Z,101197.97
2019-04-21T17:31:50.075Z,101199.56
2019-04-21T17:34:22.914Z,101205.35
2019-04-21T17:36:50.925Z,101197.55
2019-04-21T17:39:20.795Z,101195.73
2019-04-21T17:42:05.325Z,101193.38
2019-04-21T17:44:21.430Z,101193.22
2019-04-21T17:46:56.313Z,101187.60
2019-04-21T17:49:21.415Z,101188.70
2019-04-21T17:52:06.002Z,101192.05
2019-04-21T17:54:41.841Z,101190.48
2019-04-21T17:57:26.294Z,101192.53
2019-04-21T18:00:04.106Z,101186.96
2019-04-21T18:02:31.055Z,101185.55
2019-04-21T18:05:02.308Z,101189.48
2019-04-21T18:07:31.690Z,101190.24
2019-04-21T18:12:33.778Z,101194.08
2019-04-21T18:14:56.297Z,101190.43
2019-04-21T18:17:18.683Z,101193.48
2019-04-21T18:19:51.278Z,101193.81
2019-04-21T18:22:52.737Z,101195.98
2019-04-21T18:25:34.703Z,101194.58
2019-04-21T18:27:54.480Z,101193.19
2019-04-21T18:30:40.750Z,101195.38
2019-04-21T18:33:12.998Z,101193.05
2019-04-21T18:36:00.260Z,101200.52
2019-04-21T18:39:04.129Z,101193.23
2019-04-21T18:41:21.645Z,101197.14
2019-04-21T18:44:27.093Z,101206.42
2019-04-21T18:46:52.464Z,101204.42
2019-04-21T18:49:06.772Z,101206.05
2019-04-21T18:52:06.805Z,101201.75
2019-04-21T18:54:47.316Z,101201.96
2019-04-21T18:57:08.168Z,101209.36
2019-04-21T18:59:36.119Z,101205.05
2019-04-21T19:02:06.374Z,101209.27
2019-04-21T19:04:35.130Z,101208.56
2019-04-21T19:07:18.124Z,101213.66
2019-04-21T19:10:11.282Z,101211.59
2019-04-21T19:12:26.378Z,101211.82
2019-04-21T19:14:50.617Z,101220.50
2019-04-21T19:20:02.047Z,101204.31
2019-04-21T19:22:31.187Z,101215.27
2019-04-21T19:24:59.375Z,101212.29
2019-04-21T19:27:29.137Z,101210.14
2019-04-21T19:30:05.727Z,101215.66
2019-04-21T19:32:29.082Z,101217.64
2019-04-21T19:34:45.518Z,101212.87
2019-04-21T19:37:17.095Z,101213.48
2019-04-21T19:40:00.306Z,101214.55
2019-04-21T19:42:25.578Z,101213.31
2019-04-21T19:45:00.442Z,101217.50
2019-04-21T19:47:39.832Z,101208.70
2019-04-21T19:50:08.833Z,101209.73
2019-04-21T19:52:31.975Z,101213.41
2019-04-21T19:54:50.610Z,101214.47
2019-04-21T19:57:20.851Z,101211.03
2019-04-21T19:59:54.941Z,101210.28
2019-04-21T20:02:20.898Z,101210.88
2019-04-21T20:04:57.748Z,101217.75
2019-04-21T20:07:34.215Z,101210.28
2019-04-21T20:10:14.417Z,101209.52
2019-04-21T20:12:42.658Z,101215.93
2019-04-21T20:15:19.999Z,101207.99
2019-04-21T20:17:38.781Z,101205.45
2019-04-21T20:19:56.111Z,101206.46
2019-04-21T20:22:34.870Z,101208.81
2019-04-21T20:25:02.686Z,101210.75
2019-04-21T20:27:38.548Z,101206.41
2019-04-21T20:30:14.011Z,101208.30
2019-04-21T20:32:52.195Z,101209.73
2019-04-21T20:35:21.280Z,101210.76
2019-04-21T20:37:47.900Z,101206.89
2019-04-21T20:40:11.773Z,101205.26
2019-04-21T20:42:42.831Z,101204.03
2019-04-21T20:47:40.568Z,101209.63
2019-04-21T20:50:23.264Z,101208.85
2019-04-21T20:52:56.171Z,101207.20
2019-04-21T20:55:17.920Z,101200.18
2019-04-21T20:57:48.641Z,101201.59
2019-04-21T21:00:31.782Z,101198.59
2019-04-21T21:03:04.498Z,101198.71
2019-04-21T21:05:23.090Z,101197.45
2019-04-21T21:08:06.531Z,101200.67
2019-04-21T21:10:31.549Z,101195.87
2019-04-21T21:13:12.803Z,101196.86
2019-04-21T21:15:30.308Z,101196.06
2019-04-21T21:18:06.001Z,101199.25
2019-04-21T21:20:40.071Z,101202.02
2019-04-21T21:22:58.339Z,101198.98
2019-04-21T21:25:40.088Z,101201.67
2019-04-21T21:27:57.921Z,101201.73
2019-04-21T21:30:33.827Z,101202.25
2019-04-21T21:33:11.604Z,101194.31
2019-04-21T21:35:37.230Z,101205.50
2019-04-21T21:38:15.648Z,101202.88
2019-04-21T21:40:36.661Z,101208.73
2019-04-21T21:42:53.754Z,101205.69
2019-04-21T21:45:28.145Z,101205.80
2019-04-21T21:48:12.673Z,101197.38
2019-04-21T21:50:38.656Z,101201.45
2019-04-21T21:53:05.844Z,101196.15
2019-04-21T21:55:27.761Z,101198.42
2019-04-21T21:58:02.123Z,101196.23
2019-04-21T22:00:32.239Z,101197.14
2019-04-21T22:03:11.940Z,101189.20
2019-04-21T22:05:42.798Z,101194.11
2019-04-21T22:08:02.997Z,101189.27
2019-04-21T22:10:34.865Z,101193.32
2019-04-21T22:13:09.590Z,101190.22
2019-04-21T22:15:35.623Z,101191.61
2019-04-21T22:18:25.677Z,101184.09
2019-04-21T22:20:53.749Z,101182.75
2019-04-21T22:23:13.362Z,101183.69
2019-04-21T22:25:40.111Z,101184.17
2019-04-21T22:28:09.471Z,101181.98
2019-04-21T22:30:44.190Z,101177.13
2019-04-21T22:33:13.768Z,101174.93
2019-04-21T22:35:46.340Z,101181.61
2019-04-21T22:38:23.406Z,101178.09
2019-04-21T22:40:56.001Z,101175.89
2019-04-21T22:43:21.741Z,101178.59
2019-04-21T22:45:45.369Z,101179.94
2019-04-21T22:48:18.040Z,101178.16
2019-04-21T22:50:46.532Z,101178.63
2019-04-21T22:53:17.240Z,101178.20
2019-04-21T22:55:49.494Z,101178.67
2019-04-21T22:58:25.740Z,101178.25
2019-04-21T23:00:55.955Z,101183.59
2019-04-21T23:03:23.943Z,101186.25
2019-04-21T23:05:51.885Z,101184.05
2019-04-21T23:08:26.598Z,101180.05
2019-04-21T23:10:57.839Z,101180.97
2019-04-21T23:13:24.133Z,101184.53
2019-04-21T23:15:57.251Z,101181.00
2019-04-21T23:18:40.086Z,101177.45
2019-04-21T23:21:10.194Z,101179.66
2019-04-21T23:23:44.249Z,101179.23
2019-04-21T23:26:19.925Z,101180.56
2019-04-21T23:28:50.708Z,101180.14
2019-04-21T23:31:18.659Z,101179.22
2019-04-21T23:33:31.075Z,101181.45
2019-04-21T23:36:10.610Z,101182.31
2019-04-21T23:38:37.545Z,101179.22
2019-04-21T23:41:04.195Z,101176.13
2019-04-21T23:43:33.532Z,101180.11
2019-04-21T23:46:12.000Z,101180.09
2019-04-21T23:48:48.847Z,101172.55
2019-04-21T23:51:17.181Z,101175.66
2019-04-21T23:53:35.635Z,101166.78
2019-04-21T23:56:05.459Z,101170.77
2019-04-21T23:58:36.627Z,101176.52
